sensor_id;sensor_type;location;lat;lon;timestamp;P1;durP1;ratioP1;P2;durP2;ratioP2
68792;SDS011;55778;54.346;10.210;2022-07-29T00:02:14;2.58;;;1.73;;
68792;SDS011;55778;54.346;10.210;2022-07-29T00:04:39;5.07;;;1.73;;
68792;SDS011;55778;54.346;10.210;2022-07-29T00:07:04;4.35;;;2.20;;
68792;SDS011;55778;54.346;10.210;2022-07-29T00:09:30;4.07;;;2.20;;
68792;SDS011;55778;54.346;10.210;2022-07-29T00:11:57;2.90;;;1.60;;
68792;SDS011;55778;54.346;10.210;2022-07-29T00:14:24;4.80;;;1.80;;
68792;SDS011;55778;54.346;10.210;2022-07-29T00:16:50;3.88;;;1.80;;
68792;SDS011;55778;54.346;10.210;2022-07-29T00:19:15;2.60;;;1.80;;
68792;SDS011;55778;54.346;10.210;2022-07-29T00:21:41;3.55;;;2.05;;
68792;SDS011;55778;54.346;10.210;2022-07-29T00:24:06;6.20;;;2.33;;
68792;SDS011;55778;54.346;10.210;2022-07-29T00:26:32;6.70;;;1.92;;
68792;SDS011;55778;54.346;10.210;2022-07-29T00:29:01;5.28;;;2.00;;
68792;SDS011;55778;54.346;10.210;2022-07-29T00:31:28;7.03;;;2.20;;
68792;SDS011;55778;54.346;10.210;2022-07-29T00:33:53;4.32;;;2.00;;
68792;SDS011;55778;54.346;10.210;2022-07-29T00:36:19;2.58;;;1.67;;
68792;SDS011;55778;54.346;10.210;2022-07-29T00:38:46;3.17;;;2.15;;
68792;SDS011;55778;54.346;10.210;2022-07-29T00:41:13;3.80;;;2.30;;
68792;SDS011;55778;54.346;10.210;2022-07-29T00:43:39;3.83;;;2.05;;
68792;SDS011;55778;54.346;10.210;2022-07-29T00:46:05;6.65;;;2.20;;
68792;SDS011;55778;54.346;10.210;2022-07-29T00:48:31;3.70;;;2.22;;
68792;SDS011;55778;54.346;10.210;2022-07-29T00:50:57;7.85;;;2.45;;
68792;SDS011;55778;54.346;10.210;2022-07-29T00:53:23;5.88;;;2.50;;
68792;SDS011;55778;54.346;10.210;2022-07-29T00:55:49;6.35;;;2.65;;
68792;SDS011;55778;54.346;10.210;2022-07-29T00:58:15;3.75;;;2.20;;
68792;SDS011;55778;54.346;10.210;2022-07-29T01:00:40;5.15;;;2.15;;
68792;SDS011;55778;54.346;10.210;2022-07-29T01:03:06;3.83;;;2.20;;
68792;SDS011;55778;54.346;10.210;2022-07-29T01:05:32;4.00;;;2.13;;
68792;SDS011;55778;54.346;10.210;2022-07-29T01:07:59;3.47;;;2.28;;
68792;SDS011;55778;54.346;10.210;2022-07-29T01:10:25;4.97;;;2.70;;
68792;SDS011;55778;54.346;10.210;2022-07-29T01:12:52;4.13;;;2.50;;
68792;SDS011;55778;54.346;10.210;2022-07-29T01:15:21;3.60;;;2.20;;
68792;SDS011;55778;54.346;10.210;2022-07-29T01:31:26;5.95;;;2.28;;
68792;SDS011;55778;54.346;10.210;2022-07-29T01:33:58;4.13;;;2.30;;
68792;SDS011;55778;54.346;10.210;2022-07-29T01:39:18;3.88;;;2.20;;
68792;SDS011;55778;54.346;10.210;2022-07-29T01:42:00;4.53;;;2.17;;
68792;SDS011;55778;54.346;10.210;2022-07-29T01:44:36;6.53;;;2.53;;
68792;SDS011;55778;54.346;10.210;2022-07-29T01:47:14;7.72;;;2.90;;
68792;SDS011;55778;54.346;10.210;2022-07-29T01:49:44;9.00;;;2.95;;
68792;SDS011;55778;54.346;10.210;2022-07-29T01:52:14;8.77;;;2.90;;
68792;SDS011;55778;54.346;10.210;2022-07-29T01:54:45;9.63;;;3.22;;
68792;SDS011;55778;54.346;10.210;2022-07-29T01:57:16;8.32;;;2.90;;
68792;SDS011;55778;54.346;10.210;2022-07-29T01:59:45;5.15;;;2.80;;
68792;SDS011;55778;54.346;10.210;2022-07-29T02:02:13;8.82;;;3.00;;
68792;SDS011;55778;54.346;10.210;2022-07-29T02:04:40;6.90;;;2.72;;
68792;SDS011;55778;54.346;10.210;2022-07-29T02:07:08;8.45;;;2.97;;
68792;SDS011;55778;54.346;10.210;2022-07-29T02:12:04;7.40;;;2.70;;
68792;SDS011;55778;54.346;10.210;2022-07-29T02:14:35;8.10;;;3.30;;
68792;SDS011;55778;54.346;10.210;2022-07-29T02:17:03;8.32;;;2.88;;
68792;SDS011;55778;54.346;10.210;2022-07-29T02:19:29;10.45;;;3.30;;
68792;SDS011;55778;54.346;10.210;2022-07-29T02:21:57;5.93;;;3.20;;
68792;SDS011;55778;54.346;10.210;2022-07-29T02:24:24;7.28;;;3.05;;
68792;SDS011;55778;54.346;10.210;2022-07-29T02:26:53;7.13;;;2.97;;
68792;SDS011;55778;54.346;10.210;2022-07-29T02:29:22;8.02;;;3.20;;
68792;SDS011;55778;54.346;10.210;2022-07-29T02:31:50;5.43;;;2.70;;
68792;SDS011;55778;54.346;10.210;2022-07-29T02:34:17;7.32;;;2.72;;
68792;SDS011;55778;54.346;10.210;2022-07-29T02:36:45;6.95;;;2.70;;
68792;SDS011;55778;54.346;10.210;2022-07-29T02:39:11;8.23;;;2.90;;
68792;SDS011;55778;54.346;10.210;2022-07-29T02:41:40;4.97;;;2.70;;
68792;SDS011;55778;54.346;10.210;2022-07-29T02:44:09;6.55;;;2.90;;
68792;SDS011;55778;54.346;10.210;2022-07-29T02:46:39;6.95;;;3.00;;
68792;SDS011;55778;54.346;10.210;2022-07-29T02:49:10;5.43;;;2.90;;
68792;SDS011;55778;54.346;10.210;2022-07-29T02:51:45;6.53;;;2.53;;
68792;SDS011;55778;54.346;10.210;2022-07-29T02:54:19;6.45;;;2.80;;
68792;SDS011;55778;54.346;10.210;2022-07-29T02:56:48;3.92;;;2.33;;
68792;SDS011;55778;54.346;10.210;2022-07-29T02:59:18;7.53;;;2.47;;
68792;SDS011;55778;54.346;10.210;2022-07-29T03:01:48;4.25;;;2.40;;
68792;SDS011;55778;54.346;10.210;2022-07-29T03:04:14;6.22;;;2.50;;
68792;SDS011;55778;54.346;10.210;2022-07-29T03:06:41;6.75;;;2.70;;
68792;SDS011;55778;54.346;10.210;2022-07-29T03:09:08;6.30;;;2.58;;
68792;SDS011;55778;54.346;10.210;2022-07-29T03:11:35;5.15;;;2.70;;
68792;SDS011;55778;54.346;10.210;2022-07-29T03:14:01;5.75;;;2.50;;
68792;SDS011;55778;54.346;10.210;2022-07-29T03:16:28;5.53;;;3.03;;
68792;SDS011;55778;54.346;10.210;2022-07-29T03:18:54;5.70;;;2.90;;
68792;SDS011;55778;54.346;10.210;2022-07-29T03:21:20;10.30;;;3.40;;
68792;SDS011;55778;54.346;10.210;2022-07-29T03:23:46;5.47;;;3.13;;
68792;SDS011;55778;54.346;10.210;2022-07-29T03:26:12;6.93;;;3.30;;
68792;SDS011;55778;54.346;10.210;2022-07-29T03:28:37;9.00;;;3.55;;
68792;SDS011;55778;54.346;10.210;2022-07-29T03:31:02;6.05;;;3.30;;
68792;SDS011;55778;54.346;10.210;2022-07-29T03:33:28;5.95;;;2.72;;
68792;SDS011;55778;54.346;10.210;2022-07-29T03:35:55;5.95;;;2.70;;
68792;SDS011;55778;54.346;10.210;2022-07-29T03:38:21;7.38;;;3.30;;
68792;SDS011;55778;54.346;10.210;2022-07-29T03:40:52;5.95;;;3.22;;
68792;SDS011;55778;54.346;10.210;2022-07-29T03:43:21;7.32;;;3.50;;
68792;SDS011;55778;54.346;10.210;2022-07-29T03:45:49;4.32;;;2.85;;
68792;SDS011;55778;54.346;10.210;2022-07-29T03:48:18;5.82;;;3.20;;
68792;SDS011;55778;54.346;10.210;2022-07-29T03:50:46;5.43;;;2.90;;
68792;SDS011;55778;54.346;10.210;2022-07-29T03:53:11;5.88;;;3.30;;
68792;SDS011;55778;54.346;10.210;2022-07-29T03:55:41;5.68;;;3.13;;
68792;SDS011;55778;54.346;10.210;2022-07-29T03:58:10;7.13;;;2.90;;
68792;SDS011;55778;54.346;10.210;2022-07-29T04:00:37;4.60;;;2.45;;
68792;SDS011;55778;54.346;10.210;2022-07-29T04:03:03;5.30;;;2.55;;
68792;SDS011;55778;54.346;10.210;2022-07-29T04:05:29;4.55;;;2.63;;
68792;SDS011;55778;54.346;10.210;2022-07-29T04:07:54;4.28;;;2.40;;
68792;SDS011;55778;54.346;10.210;2022-07-29T04:10:20;6.00;;;2.90;;
68792;SDS011;55778;54.346;10.210;2022-07-29T04:12:45;6.18;;;2.85;;
68792;SDS011;55778;54.346;10.210;2022-07-29T04:15:11;3.33;;;2.20;;
68792;SDS011;55778;54.346;10.210;2022-07-29T04:17:37;5.25;;;2.65;;
68792;SDS011;55778;54.346;10.210;2022-07-29T04:20:03;3.47;;;2.30;;
68792;SDS011;55778;54.346;10.210;2022-07-29T04:22:29;4.57;;;2.30;;
68792;SDS011;55778;54.346;10.210;2022-07-29T04:24:54;5.22;;;2.58;;
68792;SDS011;55778;54.346;10.210;2022-07-29T04:27:20;8.38;;;3.38;;
68792;SDS011;55778;54.346;10.210;2022-07-29T04:29:45;4.40;;;3.08;;
68792;SDS011;55778;54.346;10.210;2022-07-29T04:32:10;5.63;;;2.50;;
68792;SDS011;55778;54.346;10.210;2022-07-29T04:34:36;3.88;;;2.20;;
68792;SDS011;55778;54.346;10.210;2022-07-29T04:37:01;5.45;;;2.40;;
68792;SDS011;55778;54.346;10.210;2022-07-29T04:39:26;4.82;;;2.15;;
68792;SDS011;55778;54.346;10.210;2022-07-29T04:41:52;3.70;;;2.10;;
68792;SDS011;55778;54.346;10.210;2022-07-29T04:44:17;5.00;;;2.20;;
68792;SDS011;55778;54.346;10.210;2022-07-29T04:46:43;3.70;;;2.17;;
68792;SDS011;55778;54.346;10.210;2022-07-29T04:49:08;3.80;;;1.98;;
68792;SDS011;55778;54.346;10.210;2022-07-29T04:51:34;5.40;;;2.50;;
68792;SDS011;55778;54.346;10.210;2022-07-29T04:54:00;3.95;;;2.10;;
68792;SDS011;55778;54.346;10.210;2022-07-29T04:56:25;8.43;;;3.17;;
68792;SDS011;55778;54.346;10.210;2022-07-29T04:58:51;4.90;;;2.42;;
68792;SDS011;55778;54.346;10.210;2022-07-29T05:01:18;5.28;;;1.92;;
68792;SDS011;55778;54.346;10.210;2022-07-29T05:03:44;6.03;;;2.22;;
68792;SDS011;55778;54.346;10.210;2022-07-29T05:06:10;5.80;;;2.22;;
68792;SDS011;55778;54.346;10.210;2022-07-29T05:08:35;6.03;;;2.30;;
68792;SDS011;55778;54.346;10.210;2022-07-29T05:11:01;4.22;;;2.13;;
68792;SDS011;55778;54.346;10.210;2022-07-29T05:13:26;4.35;;;2.30;;
68792;SDS011;55778;54.346;10.210;2022-07-29T05:15:51;3.45;;;2.20;;
68792;SDS011;55778;54.346;10.210;2022-07-29T05:18:17;4.93;;;1.98;;
68792;SDS011;55778;54.346;10.210;2022-07-29T05:20:42;5.47;;;2.25;;
68792;SDS011;55778;54.346;10.210;2022-07-29T05:23:08;4.25;;;2.05;;
68792;SDS011;55778;54.346;10.210;2022-07-29T05:25:33;6.85;;;2.38;;
68792;SDS011;55778;54.346;10.210;2022-07-29T05:27:59;4.57;;;2.33;;
68792;SDS011;55778;54.346;10.210;2022-07-29T05:30:24;6.60;;;2.45;;
68792;SDS011;55778;54.346;10.210;2022-07-29T05:32:50;5.75;;;2.15;;
68792;SDS011;55778;54.346;10.210;2022-07-29T05:35:15;5.60;;;2.17;;
68792;SDS011;55778;54.346;10.210;2022-07-29T05:37:42;6.07;;;2.20;;
68792;SDS011;55778;54.346;10.210;2022-07-29T05:40:07;5.18;;;2.47;;
68792;SDS011;55778;54.346;10.210;2022-07-29T05:42:33;5.63;;;2.20;;
68792;SDS011;55778;54.346;10.210;2022-07-29T05:44:59;5.78;;;2.55;;
68792;SDS011;55778;54.346;10.210;2022-07-29T05:47:25;6.32;;;2.60;;
68792;SDS011;55778;54.346;10.210;2022-07-29T05:49:50;7.72;;;2.30;;
68792;SDS011;55778;54.346;10.210;2022-07-29T05:52:16;3.60;;;1.98;;
68792;SDS011;55778;54.346;10.210;2022-07-29T05:54:41;5.85;;;2.40;;
68792;SDS011;55778;54.346;10.210;2022-07-29T05:57:07;5.70;;;2.33;;
68792;SDS011;55778;54.346;10.210;2022-07-29T05:59:36;4.15;;;2.35;;
68792;SDS011;55778;54.346;10.210;2022-07-29T06:02:02;4.13;;;2.28;;
68792;SDS011;55778;54.346;10.210;2022-07-29T06:04:30;3.70;;;2.10;;
68792;SDS011;55778;54.346;10.210;2022-07-29T06:06:56;5.53;;;2.53;;
68792;SDS011;55778;54.346;10.210;2022-07-29T06:09:21;5.82;;;2.65;;
68792;SDS011;55778;54.346;10.210;2022-07-29T06:11:47;5.88;;;2.53;;
68792;SDS011;55778;54.346;10.210;2022-07-29T06:14:13;5.45;;;2.35;;
68792;SDS011;55778;54.346;10.210;2022-07-29T06:16:39;4.40;;;2.20;;
68792;SDS011;55778;54.346;10.210;2022-07-29T06:19:04;5.45;;;2.42;;
68792;SDS011;55778;54.346;10.210;2022-07-29T06:21:30;5.55;;;2.65;;
68792;SDS011;55778;54.346;10.210;2022-07-29T06:23:55;8.10;;;3.17;;
68792;SDS011;55778;54.346;10.210;2022-07-29T06:26:20;6.32;;;2.80;;
68792;SDS011;55778;54.346;10.210;2022-07-29T06:28:46;6.50;;;2.55;;
68792;SDS011;55778;54.346;10.210;2022-07-29T06:31:11;6.05;;;2.40;;
68792;SDS011;55778;54.346;10.210;2022-07-29T06:33:36;6.47;;;2.30;;
68792;SDS011;55778;54.346;10.210;2022-07-29T06:36:03;5.75;;;2.60;;
68792;SDS011;55778;54.346;10.210;2022-07-29T06:38:30;7.32;;;2.92;;
68792;SDS011;55778;54.346;10.210;2022-07-29T06:40:55;4.82;;;2.65;;
68792;SDS011;55778;54.346;10.210;2022-07-29T06:43:28;4.72;;;2.47;;
68792;SDS011;55778;54.346;10.210;2022-07-29T06:45:56;8.52;;;3.28;;
68792;SDS011;55778;54.346;10.210;2022-07-29T06:48:23;5.20;;;2.05;;
68792;SDS011;55778;54.346;10.210;2022-07-29T06:50:48;4.32;;;1.90;;
68792;SDS011;55778;54.346;10.210;2022-07-29T06:53:15;5.45;;;2.33;;
68792;SDS011;55778;54.346;10.210;2022-07-29T06:55:41;3.83;;;2.15;;
68792;SDS011;55778;54.346;10.210;2022-07-29T06:58:07;5.10;;;1.83;;
68792;SDS011;55778;54.346;10.210;2022-07-29T07:00:34;4.00;;;2.40;;
68792;SDS011;55778;54.346;10.210;2022-07-29T07:03:00;4.85;;;2.05;;
68792;SDS011;55778;54.346;10.210;2022-07-29T07:05:25;4.70;;;1.60;;
68792;SDS011;55778;54.346;10.210;2022-07-29T07:07:50;4.93;;;1.80;;
68792;SDS011;55778;54.346;10.210;2022-07-29T07:10:16;5.18;;;1.65;;
68792;SDS011;55778;54.346;10.210;2022-07-29T07:12:41;3.33;;;1.85;;
68792;SDS011;55778;54.346;10.210;2022-07-29T07:15:07;9.10;;;2.33;;
68792;SDS011;55778;54.346;10.210;2022-07-29T07:17:32;4.32;;;1.98;;
68792;SDS011;55778;54.346;10.210;2022-07-29T07:19:58;4.55;;;2.03;;
68792;SDS011;55778;54.346;10.210;2022-07-29T07:22:23;3.38;;;1.77;;
68792;SDS011;55778;54.346;10.210;2022-07-29T07:24:49;5.47;;;1.50;;
68792;SDS011;55778;54.346;10.210;2022-07-29T07:27:14;3.85;;;1.45;;
68792;SDS011;55778;54.346;10.210;2022-07-29T07:29:39;5.40;;;1.85;;
68792;SDS011;55778;54.346;10.210;2022-07-29T07:32:06;5.20;;;1.60;;
68792;SDS011;55778;54.346;10.210;2022-07-29T07:34:32;2.83;;;1.50;;
68792;SDS011;55778;54.346;10.210;2022-07-29T07:36:57;3.80;;;1.60;;
68792;SDS011;55778;54.346;10.210;2022-07-29T07:39:23;3.85;;;1.60;;
68792;SDS011;55778;54.346;10.210;2022-07-29T07:41:48;5.97;;;1.63;;
68792;SDS011;55778;54.346;10.210;2022-07-29T07:44:14;3.55;;;1.33;;
68792;SDS011;55778;54.346;10.210;2022-07-29T07:46:39;3.15;;;1.52;;
68792;SDS011;55778;54.346;10.210;2022-07-29T07:49:05;4.13;;;1.67;;
68792;SDS011;55778;54.346;10.210;2022-07-29T07:51:30;4.80;;;1.48;;
68792;SDS011;55778;54.346;10.210;2022-07-29T07:53:55;3.90;;;1.50;;
68792;SDS011;55778;54.346;10.210;2022-07-29T07:56:21;2.58;;;1.48;;
68792;SDS011;55778;54.346;10.210;2022-07-29T07:58:46;3.58;;;1.40;;
68792;SDS011;55778;54.346;10.210;2022-07-29T08:01:11;3.45;;;1.40;;
68792;SDS011;55778;54.346;10.210;2022-07-29T08:03:37;3.40;;;1.27;;
68792;SDS011;55778;54.346;10.210;2022-07-29T08:06:05;2.40;;;1.30;;
68792;SDS011;55778;54.346;10.210;2022-07-29T08:08:31;4.50;;;1.70;;
68792;SDS011;55778;54.346;10.210;2022-07-29T08:10:56;3.65;;;1.40;;
68792;SDS011;55778;54.346;10.210;2022-07-29T08:13:23;5.30;;;1.63;;
68792;SDS011;55778;54.346;10.210;2022-07-29T08:15:53;6.50;;;1.70;;
68792;SDS011;55778;54.346;10.210;2022-07-29T08:18:26;4.22;;;1.52;;
68792;SDS011;55778;54.346;10.210;2022-07-29T08:20:52;4.72;;;1.65;;
68792;SDS011;55778;54.346;10.210;2022-07-29T08:23:17;3.80;;;1.95;;
68792;SDS011;55778;54.346;10.210;2022-07-29T08:25:44;5.30;;;2.00;;
68792;SDS011;55778;54.346;10.210;2022-07-29T08:28:09;3.72;;;1.70;;
68792;SDS011;55778;54.346;10.210;2022-07-29T08:30:34;4.90;;;1.90;;
68792;SDS011;55778;54.346;10.210;2022-07-29T08:33:00;6.03;;;1.77;;
68792;SDS011;55778;54.346;10.210;2022-07-29T08:35:26;3.20;;;1.58;;
68792;SDS011;55778;54.346;10.210;2022-07-29T08:37:51;4.75;;;1.88;;
68792;SDS011;55778;54.346;10.210;2022-07-29T08:40:17;6.47;;;1.55;;
68792;SDS011;55778;54.346;10.210;2022-07-29T08:42:46;3.85;;;1.70;;
68792;SDS011;55778;54.346;10.210;2022-07-29T08:45:12;5.93;;;1.90;;
68792;SDS011;55778;54.346;10.210;2022-07-29T08:47:40;4.18;;;1.63;;
68792;SDS011;55778;54.346;10.210;2022-07-29T08:50:07;5.68;;;1.63;;
68792;SDS011;55778;54.346;10.210;2022-07-29T08:52:35;3.50;;;1.80;;
68792;SDS011;55778;54.346;10.210;2022-07-29T08:55:02;2.90;;;1.67;;
68792;SDS011;55778;54.346;10.210;2022-07-29T08:57:30;4.28;;;1.70;;
68792;SDS011;55778;54.346;10.210;2022-07-29T08:59:56;4.45;;;1.73;;
68792;SDS011;55778;54.346;10.210;2022-07-29T09:02:25;4.03;;;1.73;;
68792;SDS011;55778;54.346;10.210;2022-07-29T09:07:21;3.88;;;1.70;;
68792;SDS011;55778;54.346;10.210;2022-07-29T09:09:46;4.45;;;1.70;;
68792;SDS011;55778;54.346;10.210;2022-07-29T09:12:12;5.65;;;1.83;;
68792;SDS011;55778;54.346;10.210;2022-07-29T09:14:38;4.45;;;1.80;;
68792;SDS011;55778;54.346;10.210;2022-07-29T09:17:04;4.53;;;1.73;;
68792;SDS011;55778;54.346;10.210;2022-07-29T09:19:30;5.05;;;1.70;;
68792;SDS011;55778;54.346;10.210;2022-07-29T09:22:00;4.78;;;1.65;;
68792;SDS011;55778;54.346;10.210;2022-07-29T09:27:07;4.20;;;1.60;;
68792;SDS011;55778;54.346;10.210;2022-07-29T09:30:00;4.07;;;1.70;;
68792;SDS011;55778;54.346;10.210;2022-07-29T09:32:29;2.85;;;1.67;;
68792;SDS011;55778;54.346;10.210;2022-07-29T09:35:14;6.57;;;1.70;;
68792;SDS011;55778;54.346;10.210;2022-07-29T09:37:40;6.60;;;1.60;;
68792;SDS011;55778;54.346;10.210;2022-07-29T09:40:11;3.45;;;1.50;;
68792;SDS011;55778;54.346;10.210;2022-07-29T09:42:44;3.83;;;1.50;;
68792;SDS011;55778;54.346;10.210;2022-07-29T09:45:10;2.50;;;1.50;;
68792;SDS011;55778;54.346;10.210;2022-07-29T09:47:46;7.38;;;1.67;;
68792;SDS011;55778;54.346;10.210;2022-07-29T09:50:14;3.00;;;1.70;;
68792;SDS011;55778;54.346;10.210;2022-07-29T09:52:50;4.38;;;1.33;;
68792;SDS011;55778;54.346;10.210;2022-07-29T09:55:18;4.28;;;1.50;;
68792;SDS011;55778;54.346;10.210;2022-07-29T09:57:44;4.25;;;1.40;;
68792;SDS011;55778;54.346;10.210;2022-07-29T10:00:11;4.28;;;1.60;;
68792;SDS011;55778;54.346;10.210;2022-07-29T10:02:40;3.55;;;1.65;;
68792;SDS011;55778;54.346;10.210;2022-07-29T10:05:19;4.60;;;1.77;;
68792;SDS011;55778;54.346;10.210;2022-07-29T10:07:50;4.18;;;1.60;;
68792;SDS011;55778;54.346;10.210;2022-07-29T10:10:21;4.65;;;2.03;;
68792;SDS011;55778;54.346;10.210;2022-07-29T10:12:49;3.00;;;1.50;;
68792;SDS011;55778;54.346;10.210;2022-07-29T10:15:16;4.57;;;1.83;;
68792;SDS011;55778;54.346;10.210;2022-07-29T10:17:43;4.07;;;1.63;;
68792;SDS011;55778;54.346;10.210;2022-07-29T10:20:10;4.38;;;1.50;;
68792;SDS011;55778;54.346;10.210;2022-07-29T10:22:35;4.50;;;1.50;;
68792;SDS011;55778;54.346;10.210;2022-07-29T10:25:01;5.57;;;1.80;;
68792;SDS011;55778;54.346;10.210;2022-07-29T10:27:27;6.10;;;1.90;;
68792;SDS011;55778;54.346;10.210;2022-07-29T10:29:53;4.95;;;1.67;;
68792;SDS011;55778;54.346;10.210;2022-07-29T10:32:26;5.55;;;2.10;;
68792;SDS011;55778;54.346;10.210;2022-07-29T10:37:46;3.83;;;1.58;;
68792;SDS011;55778;54.346;10.210;2022-07-29T10:40:35;4.18;;;1.80;;
68792;SDS011;55778;54.346;10.210;2022-07-29T10:46:01;4.38;;;1.45;;
68792;SDS011;55778;54.346;10.210;2022-07-29T10:48:27;4.45;;;1.42;;
68792;SDS011;55778;54.346;10.210;2022-07-29T10:51:00;3.58;;;1.50;;
68792;SDS011;55778;54.346;10.210;2022-07-29T10:56:26;3.85;;;1.60;;
68792;SDS011;55778;54.346;10.210;2022-07-29T11:01:51;3.25;;;1.50;;
68792;SDS011;55778;54.346;10.210;2022-07-29T11:05:03;5.30;;;1.50;;
68792;SDS011;55778;54.346;10.210;2022-07-29T11:07:09;8.63;;;1.80;;
68792;SDS011;55778;54.346;10.210;2022-07-29T11:09:35;3.63;;;1.55;;
68792;SDS011;55778;54.346;10.210;2022-07-29T11:12:00;5.80;;;1.38;;
68792;SDS011;55778;54.346;10.210;2022-07-29T11:17:16;3.58;;;1.40;;
68792;SDS011;55778;54.346;10.210;2022-07-29T11:19:41;3.85;;;1.40;;
68792;SDS011;55778;54.346;10.210;2022-07-29T11:22:08;4.68;;;1.95;;
68792;SDS011;55778;54.346;10.210;2022-07-29T11:24:35;3.20;;;1.40;;
68792;SDS011;55778;54.346;10.210;2022-07-29T11:27:07;2.92;;;1.63;;
68792;SDS011;55778;54.346;10.210;2022-07-29T11:29:38;4.10;;;1.70;;
68792;SDS011;55778;54.346;10.210;2022-07-29T11:32:13;5.55;;;1.95;;
68792;SDS011;55778;54.346;10.210;2022-07-29T11:34:40;6.57;;;1.70;;
68792;SDS011;55778;54.346;10.210;2022-07-29T11:40:21;3.55;;;1.42;;
68792;SDS011;55778;54.346;10.210;2022-07-29T11:50:28;4.25;;;1.65;;
68792;SDS011;55778;54.346;10.210;2022-07-29T11:53:09;4.82;;;1.77;;
68792;SDS011;55778;54.346;10.210;2022-07-29T11:55:37;3.38;;;1.52;;
68792;SDS011;55778;54.346;10.210;2022-07-29T11:58:04;4.68;;;1.75;;
68792;SDS011;55778;54.346;10.210;2022-07-29T12:00:30;4.05;;;1.50;;
68792;SDS011;55778;54.346;10.210;2022-07-29T12:03:07;3.55;;;1.80;;
68792;SDS011;55778;54.346;10.210;2022-07-29T12:08:08;3.70;;;1.70;;
68792;SDS011;55778;54.346;10.210;2022-07-29T12:10:33;6.15;;;1.50;;
68792;SDS011;55778;54.346;10.210;2022-07-29T12:12:59;6.18;;;1.80;;
68792;SDS011;55778;54.346;10.210;2022-07-29T12:15:24;2.70;;;1.40;;
68792;SDS011;55778;54.346;10.210;2022-07-29T12:17:51;3.20;;;1.70;;
68792;SDS011;55778;54.346;10.210;2022-07-29T12:20:49;3.42;;;1.75;;
68792;SDS011;55778;54.346;10.210;2022-07-29T12:23:09;6.40;;;1.75;;
68792;SDS011;55778;54.346;10.210;2022-07-29T12:25:38;5.05;;;1.58;;
68792;SDS011;55778;54.346;10.210;2022-07-29T12:28:06;2.75;;;1.50;;
68792;SDS011;55778;54.346;10.210;2022-07-29T12:30:35;6.07;;;1.70;;
68792;SDS011;55778;54.346;10.210;2022-07-29T12:33:01;4.57;;;1.85;;
68792;SDS011;55778;54.346;10.210;2022-07-29T12:35:26;2.55;;;1.70;;
68792;SDS011;55778;54.346;10.210;2022-07-29T12:37:52;5.07;;;1.70;;
68792;SDS011;55778;54.346;10.210;2022-07-29T12:40:19;3.10;;;1.67;;
68792;SDS011;55778;54.346;10.210;2022-07-29T12:45:32;4.05;;;1.90;;
68792;SDS011;55778;54.346;10.210;2022-07-29T12:47:58;5.38;;;1.80;;
68792;SDS011;55778;54.346;10.210;2022-07-29T12:50:24;2.85;;;1.88;;
68792;SDS011;55778;54.346;10.210;2022-07-29T12:52:50;3.17;;;1.58;;
68792;SDS011;55778;54.346;10.210;2022-07-29T12:58:07;9.38;;;3.17;;
68792;SDS011;55778;54.346;10.210;2022-07-29T13:00:32;6.20;;;3.53;;
68792;SDS011;55778;54.346;10.210;2022-07-29T13:02:59;4.00;;;1.80;;
68792;SDS011;55778;54.346;10.210;2022-07-29T13:05:38;5.03;;;2.08;;
68792;SDS011;55778;54.346;10.210;2022-07-29T13:08:12;3.58;;;1.80;;
68792;SDS011;55778;54.346;10.210;2022-07-29T13:10:43;5.88;;;1.80;;
68792;SDS011;55778;54.346;10.210;2022-07-29T13:15:43;7.88;;;2.10;;
68792;SDS011;55778;54.346;10.210;2022-07-29T13:20:57;2.58;;;1.80;;
68792;SDS011;55778;54.346;10.210;2022-07-29T13:23:40;3.72;;;1.50;;
68792;SDS011;55778;54.346;10.210;2022-07-29T13:26:07;3.35;;;1.90;;
68792;SDS011;55778;54.346;10.210;2022-07-29T13:28:34;4.47;;;1.60;;
68792;SDS011;55778;54.346;10.210;2022-07-29T13:31:00;3.53;;;1.60;;
68792;SDS011;55778;54.346;10.210;2022-07-29T13:33:25;2.40;;;1.50;;
68792;SDS011;55778;54.346;10.210;2022-07-29T13:35:51;2.45;;;1.73;;
68792;SDS011;55778;54.346;10.210;2022-07-29T13:38:16;4.45;;;1.58;;
68792;SDS011;55778;54.346;10.210;2022-07-29T13:40:42;4.68;;;1.88;;
68792;SDS011;55778;54.346;10.210;2022-07-29T13:43:10;3.67;;;1.80;;
68792;SDS011;55778;54.346;10.210;2022-07-29T13:45:37;5.28;;;2.20;;
68792;SDS011;55778;54.346;10.210;2022-07-29T13:48:02;6.60;;;1.80;;
68792;SDS011;55778;54.346;10.210;2022-07-29T13:50:28;3.15;;;1.88;;
68792;SDS011;55778;54.346;10.210;2022-07-29T13:52:53;3.70;;;1.70;;
68792;SDS011;55778;54.346;10.210;2022-07-29T13:55:19;4.28;;;1.73;;
68792;SDS011;55778;54.346;10.210;2022-07-29T13:57:44;4.85;;;1.95;;
68792;SDS011;55778;54.346;10.210;2022-07-29T14:00:10;4.70;;;1.90;;
68792;SDS011;55778;54.346;10.210;2022-07-29T14:02:37;5.07;;;1.70;;
68792;SDS011;55778;54.346;10.210;2022-07-29T14:05:03;3.55;;;2.15;;
68792;SDS011;55778;54.346;10.210;2022-07-29T14:07:30;5.30;;;2.17;;
68792;SDS011;55778;54.346;10.210;2022-07-29T14:09:55;3.50;;;1.80;;
68792;SDS011;55778;54.346;10.210;2022-07-29T14:12:21;4.50;;;1.60;;
68792;SDS011;55778;54.346;10.210;2022-07-29T14:14:47;4.82;;;1.75;;
68792;SDS011;55778;54.346;10.210;2022-07-29T14:17:13;8.80;;;2.00;;
68792;SDS011;55778;54.346;10.210;2022-07-29T14:19:38;3.42;;;1.75;;
68792;SDS011;55778;54.346;10.210;2022-07-29T14:22:04;4.13;;;2.00;;
68792;SDS011;55778;54.346;10.210;2022-07-29T14:24:31;3.65;;;2.03;;
68792;SDS011;55778;54.346;10.210;2022-07-29T14:26:56;5.97;;;2.00;;
68792;SDS011;55778;54.346;10.210;2022-07-29T14:29:22;7.28;;;2.25;;
68792;SDS011;55778;54.346;10.210;2022-07-29T14:31:48;4.50;;;1.75;;
68792;SDS011;55778;54.346;10.210;2022-07-29T14:34:15;4.13;;;1.80;;
68792;SDS011;55778;54.346;10.210;2022-07-29T14:36:40;4.30;;;2.00;;
68792;SDS011;55778;54.346;10.210;2022-07-29T14:39:06;5.38;;;2.20;;
68792;SDS011;55778;54.346;10.210;2022-07-29T14:41:33;4.25;;;1.95;;
68792;SDS011;55778;54.346;10.210;2022-07-29T14:43:58;7.95;;;2.10;;
68792;SDS011;55778;54.346;10.210;2022-07-29T14:46:25;4.13;;;2.33;;
68792;SDS011;55778;54.346;10.210;2022-07-29T14:48:51;4.93;;;1.95;;
68792;SDS011;55778;54.346;10.210;2022-07-29T14:51:17;6.30;;;2.15;;
68792;SDS011;55778;54.346;10.210;2022-07-29T14:53:42;4.05;;;2.10;;
68792;SDS011;55778;54.346;10.210;2022-07-29T14:56:08;3.30;;;1.80;;
68792;SDS011;55778;54.346;10.210;2022-07-29T14:58:34;3.33;;;1.80;;
68792;SDS011;55778;54.346;10.210;2022-07-29T15:00:59;4.22;;;2.60;;
68792;SDS011;55778;54.346;10.210;2022-07-29T15:03:26;4.00;;;2.00;;
68792;SDS011;55778;54.346;10.210;2022-07-29T15:05:52;5.20;;;2.00;;
68792;SDS011;55778;54.346;10.210;2022-07-29T15:08:18;6.18;;;2.00;;
68792;SDS011;55778;54.346;10.210;2022-07-29T15:10:44;6.75;;;1.90;;
68792;SDS011;55778;54.346;10.210;2022-07-29T15:13:09;4.30;;;1.67;;
68792;SDS011;55778;54.346;10.210;2022-07-29T15:15:35;2.92;;;1.60;;
68792;SDS011;55778;54.346;10.210;2022-07-29T15:18:00;4.28;;;1.92;;
68792;SDS011;55778;54.346;10.210;2022-07-29T15:20:26;4.40;;;1.75;;
68792;SDS011;55778;54.346;10.210;2022-07-29T15:22:52;3.83;;;1.70;;
68792;SDS011;55778;54.346;10.210;2022-07-29T15:25:18;3.67;;;1.40;;
68792;SDS011;55778;54.346;10.210;2022-07-29T15:27:43;7.18;;;1.52;;
68792;SDS011;55778;54.346;10.210;2022-07-29T15:30:09;3.88;;;1.50;;
68792;SDS011;55778;54.346;10.210;2022-07-29T15:32:35;5.63;;;2.20;;
68792;SDS011;55778;54.346;10.210;2022-07-29T15:35:01;3.60;;;1.50;;
68792;SDS011;55778;54.346;10.210;2022-07-29T15:37:27;4.05;;;1.40;;